Terminal Aerodrome Forecast
Issued by NWS

Home | Current Version | Previous Version | Text Only | Print | Product List | Glossary On
Versions: 1 2 3 4 5 6 7 8 9 10 11 12 13 14 15 16
000
FTUS41 KBOX 270540
TAFHYA
TAF
KHYA 270540Z 2706/2806 00000KT 1/4SM DZ FG VCSH OVC002
     FM271000 VRB03KT 1/2SM DZ FG OVC002
     FM271200 VRB03KT 1SM BR OVC008
     FM271800 19004KT P6SM BKN008
     FM280000 20009KT 3SM BR OVC020
     FM280500 19008KT 2SM BR OVC010=

USA.gov is the U.S. government's official web portal to all federal, state and local government web resources and services.